createdAt,value
2018-06-04T00:00:05.538Z,73.46
2018-06-04T00:01:05.536Z,73.56
2018-06-04T00:02:05.540Z,73.94
2018-06-04T00:03:05.548Z,73.66
2018-06-04T00:04:05.543Z,73.56
2018-06-04T00:05:05.547Z,73.94
2018-06-04T00:06:05.545Z,73.18
2018-06-04T00:07:05.547Z,73.18
2018-06-04T00:08:05.549Z,73.66
2018-06-04T00:09:05.554Z,73.75
2018-06-04T00:10:05.554Z,73.56
2018-06-04T00:11:05.551Z,73.85
2018-06-04T00:12:05.559Z,72.99
2018-06-04T00:13:05.554Z,73.18
2018-06-04T00:14:05.558Z,72.69
2018-06-04T00:15:05.558Z,72.69
2018-06-04T00:16:05.557Z,72.69
2018-06-04T00:17:05.557Z,72.50
2018-06-04T00:18:05.562Z,72.69
2018-06-04T00:19:05.557Z,72.69
2018-06-04T00:20:05.560Z,71.93
2018-06-04T00:21:05.561Z,72.12
2018-06-04T00:22:05.562Z,72.31
2018-06-04T00:23:05.603Z,71.93
2018-06-04T00:24:05.568Z,72.12
2018-06-04T00:25:05.568Z,71.83
2018-06-04T00:26:05.570Z,71.93
2018-06-04T00:27:05.569Z,71.93
2018-06-04T00:28:05.571Z,71.98
2018-06-04T00:29:05.570Z,72.22
2018-06-04T00:30:05.576Z,72.12
2018-06-04T00:31:05.573Z,72.12
2018-06-04T00:32:05.572Z,71.45
2018-06-04T00:33:05.575Z,71.51
2018-06-04T00:34:05.571Z,71.61
2018-06-04T00:35:05.576Z,71.80
2018-06-04T00:36:05.576Z,71.35
2018-06-04T00:37:05.576Z,71.22
2018-06-04T00:38:05.581Z,71.51
2018-06-04T00:39:05.581Z,71.31
2018-06-04T00:40:05.579Z,70.93
2018-06-04T00:41:05.583Z,70.64
2018-06-04T00:42:05.583Z,70.55
2018-06-04T00:43:05.586Z,70.55
2018-06-04T00:44:05.586Z,70.36
2018-06-04T00:45:05.586Z,70.93
2018-06-04T00:46:05.589Z,70.45
2018-06-04T00:47:05.592Z,70.84
2018-06-04T00:48:05.590Z,70.84
2018-06-04T00:49:05.592Z,71.03
2018-06-04T00:50:05.593Z,70.45
2018-06-04T00:51:05.593Z,70.84
2018-06-04T00:52:05.593Z,70.74
2018-06-04T00:53:05.596Z,70.84
2018-06-04T00:54:05.597Z,70.84
2018-06-04T00:55:05.596Z,69.78
2018-06-04T00:56:05.596Z,69.87
2018-06-04T00:57:05.597Z,69.87
2018-06-04T00:58:05.607Z,69.97
2018-06-04T00:59:05.605Z,69.78
2018-06-04T01:00:05.602Z,70.93
2018-06-04T01:01:05.604Z,70.17
2018-06-04T01:02:05.604Z,70.36
2018-06-04T01:03:05.604Z,69.78
2018-06-04T01:04:05.609Z,70.07
2018-06-04T01:05:05.609Z,69.97
2018-06-04T01:06:05.613Z,69.68
2018-06-04T01:07:05.608Z,69.87
2018-06-04T01:08:05.616Z,69.40
2018-06-04T01:09:05.614Z,69.11
2018-06-04T01:10:05.616Z,69.11
2018-06-04T01:11:05.610Z,69.59
2018-06-04T01:12:05.614Z,69.59
2018-06-04T01:13:05.611Z,69.49
2018-06-04T01:14:05.615Z,69.87
2018-06-04T01:15:05.616Z,70.26
2018-06-04T01:16:05.617Z,70.07
2018-06-04T01:17:05.625Z,70.93
2018-06-04T01:18:05.630Z,69.93
2018-06-04T01:19:05.620Z,69.97
2018-06-04T01:20:05.625Z,70.03
2018-06-04T01:21:05.621Z,70.03
2018-06-04T01:22:05.624Z,69.46
2018-06-04T01:23:05.624Z,69.36
2018-06-04T01:24:05.634Z,69.07
2018-06-04T01:25:05.633Z,69.07
2018-06-04T01:26:05.631Z,69.36
2018-06-04T01:27:05.629Z,68.79
2018-06-04T01:28:05.629Z,68.30
2018-06-04T01:29:05.631Z,68.18
2018-06-04T01:30:05.628Z,68.18
2018-06-04T01:31:05.630Z,67.99
2018-06-04T01:32:05.635Z,66.83
2018-06-04T01:33:05.633Z,67.22
2018-06-04T01:34:05.635Z,67.41
2018-06-04T01:35:05.636Z,67.32
2018-06-04T01:36:05.638Z,67.32
2018-06-04T01:37:05.640Z,67.02
2018-06-04T01:38:05.641Z,67.41
2018-06-04T01:39:05.642Z,67.12
2018-06-04T01:40:05.642Z,67.41
2018-06-04T01:41:05.697Z,67.32
2018-06-04T01:42:05.654Z,66.93
2018-06-04T01:43:05.642Z,67.41
2018-06-04T01:44:05.646Z,67.12
2018-06-04T01:45:05.647Z,66.93
2018-06-04T01:46:05.646Z,67.12
2018-06-04T01:47:05.648Z,67.02
2018-06-04T01:48:05.650Z,67.12
2018-06-04T01:49:05.647Z,67.12
2018-06-04T01:50:05.650Z,66.93
2018-06-04T01:51:05.655Z,67.32
2018-06-04T01:52:05.653Z,67.32
2018-06-04T01:53:05.654Z,68.18
2018-06-04T01:54:05.654Z,67.99
2018-06-04T01:55:05.656Z,68.27
2018-06-04T01:56:05.657Z,68.27
2018-06-04T01:57:05.662Z,68.56
2018-06-04T01:58:05.660Z,68.27
2018-06-04T01:59:05.663Z,68.27
2018-06-04T02:00:05.659Z,68.37
2018-06-04T02:01:05.665Z,69.04
2018-06-04T02:02:05.662Z,68.75
2018-06-04T02:03:05.665Z,68.27
2018-06-04T02:04:05.664Z,68.08
2018-06-04T02:05:05.665Z,67.79
2018-06-04T02:06:05.663Z,66.80
2018-06-04T02:07:05.666Z,67.32
2018-06-04T02:08:05.668Z,67.50
2018-06-04T02:09:05.670Z,67.38
2018-06-04T02:10:05.671Z,66.80
2018-06-04T02:11:05.675Z,67.09
2018-06-04T02:12:05.672Z,66.99
2018-06-04T02:13:05.673Z,66.42
2018-06-04T02:14:05.673Z,65.78
2018-06-04T02:15:05.683Z,65.59
2018-06-04T02:16:05.677Z,65.75
2018-06-04T02:17:05.687Z,65.75
2018-06-04T02:18:05.678Z,65.75
2018-06-04T02:19:05.675Z,65.26
2018-06-04T02:20:05.679Z,65.17
2018-06-04T02:21:05.681Z,65.75
2018-06-04T02:22:05.681Z,65.36
2018-06-04T02:23:05.681Z,65.08
2018-06-04T02:24:05.685Z,65.55
2018-06-04T02:25:05.690Z,65.55
2018-06-04T02:26:05.684Z,65.36
2018-06-04T02:27:05.683Z,65.46
2018-06-04T02:28:05.706Z,65.17
2018-06-04T02:29:05.688Z,65.26
2018-06-04T02:30:05.689Z,64.69
2018-06-04T02:31:05.689Z,64.89
2018-06-04T02:32:05.692Z,65.26
2018-06-04T02:33:05.691Z,65.26
2018-06-04T02:34:05.691Z,64.79
2018-06-04T02:35:05.695Z,64.98
2018-06-04T02:36:05.696Z,65.26
2018-06-04T02:37:05.693Z,64.40
2018-06-04T02:38:05.694Z,64.31
2018-06-04T02:39:05.693Z,64.40
2018-06-04T02:40:05.696Z,64.40
2018-06-04T02:41:05.698Z,64.50
2018-06-04T02:42:05.696Z,64.31
2018-06-04T02:43:05.704Z,64.59
2018-06-04T02:44:05.698Z,64.59
2018-06-04T02:45:05.701Z,64.40
2018-06-04T02:46:05.702Z,64.02
2018-06-04T02:47:05.701Z,64.12
2018-06-04T02:48:05.701Z,64.31
2018-06-04T02:49:05.708Z,64.31
2018-06-04T02:50:05.802Z,64.59
2018-06-04T02:51:05.709Z,65.17
2018-06-04T02:52:05.705Z,64.89
2018-06-04T02:53:05.706Z,65.08
2018-06-04T02:54:05.710Z,65.46
2018-06-04T02:55:05.708Z,65.26
2018-06-04T02:56:05.725Z,64.89
2018-06-04T02:57:05.707Z,64.22
2018-06-04T02:58:05.706Z,64.31
2018-06-04T02:59:05.709Z,64.22
2018-06-04T03:00:05.713Z,65.17
2018-06-04T03:01:05.714Z,64.89
2018-06-04T03:02:05.719Z,64.69
2018-06-04T03:03:05.717Z,64.89
2018-06-04T03:04:05.717Z,64.40
2018-06-04T03:05:05.718Z,64.12
2018-06-04T03:06:05.721Z,64.50
2018-06-04T03:07:05.718Z,64.02
2018-06-04T03:08:05.722Z,63.92
2018-06-04T03:09:05.727Z,64.02
2018-06-04T03:10:05.723Z,64.22
2018-06-04T03:11:05.721Z,64.40
2018-06-04T03:12:05.722Z,64.40
2018-06-04T03:13:05.718Z,63.83
2018-06-04T03:14:05.730Z,64.22
2018-06-04T03:15:05.730Z,63.83
2018-06-04T03:16:05.725Z,64.50
2018-06-04T03:17:05.732Z,64.59
2018-06-04T03:18:05.731Z,64.22
2018-06-04T03:19:05.727Z,64.59
2018-06-04T03:20:05.735Z,63.64
2018-06-04T03:21:05.730Z,63.73
2018-06-04T03:22:05.731Z,63.92
2018-06-04T03:23:05.739Z,64.59
2018-06-04T03:24:05.742Z,64.31
2018-06-04T03:25:05.734Z,64.31
2018-06-04T03:26:05.737Z,64.43
2018-06-04T03:27:05.742Z,64.31
2018-06-04T03:28:05.735Z,65.11
2018-06-04T03:29:05.738Z,65.88
2018-06-04T03:30:05.739Z,66.74
2018-06-04T03:31:05.735Z,67.44
2018-06-04T03:32:05.740Z,69.07
2018-06-04T03:33:05.736Z,70.61
2018-06-04T03:34:05.739Z,72.56
2018-06-04T03:35:05.740Z,73.52
2018-06-04T03:36:05.741Z,75.45
2018-06-04T03:37:05.746Z,76.54
2018-06-04T03:38:05.745Z,78.45
2018-06-04T03:39:05.745Z,79.32
2018-06-04T03:40:05.750Z,80.32
2018-06-04T03:41:05.746Z,81.28
2018-06-04T03:42:05.756Z,82.53
2018-06-04T03:43:05.749Z,84.11
2018-06-04T03:44:05.757Z,85.27
2018-06-04T03:45:05.752Z,84.50
2018-06-04T03:46:05.753Z,84.64
2018-06-04T03:47:05.754Z,84.88
2018-06-04T03:48:05.755Z,85.94
2018-06-04T03:49:05.756Z,87.13
2018-06-04T03:50:05.757Z,87.52
2018-06-04T03:51:05.755Z,88.43
2018-06-04T03:52:05.802Z,89.10
2018-06-04T03:53:05.761Z,90.01
2018-06-04T03:54:05.761Z,91.27
2018-06-04T03:55:05.762Z,91.89
2018-06-04T03:56:05.766Z,91.99
2018-06-04T03:57:05.770Z,93.09
2018-06-04T03:58:05.767Z,93.28
2018-06-04T03:59:05.768Z,93.66
2018-06-04T04:00:05.769Z,93.62
2018-06-04T04:01:05.774Z,94.00
2018-06-04T04:02:05.772Z,94.10
2018-06-04T04:03:05.778Z,93.86
2018-06-04T04:04:05.775Z,93.14
2018-06-04T04:05:05.787Z,93.04
2018-06-04T04:06:05.782Z,93.57
2018-06-04T04:07:05.781Z,94.58
2018-06-04T04:08:05.783Z,94.20
2018-06-04T04:09:05.781Z,94.73
2018-06-04T04:10:05.785Z,95.11
2018-06-04T04:11:05.785Z,95.16
2018-06-04T04:12:05.787Z,95.20
2018-06-04T04:13:05.795Z,95.30
2018-06-04T04:14:05.795Z,95.35
2018-06-04T04:15:05.793Z,95.06
2018-06-04T04:16:05.795Z,95.30
2018-06-04T04:17:05.798Z,95.40
2018-06-04T04:18:05.798Z,95.30
2018-06-04T04:19:05.800Z,95.44
2018-06-04T04:20:05.803Z,95.15
2018-06-04T04:21:05.808Z,94.81
2018-06-04T04:22:05.807Z,94.91
2018-06-04T04:23:05.811Z,94.71
2018-06-04T04:24:05.818Z,94.52
2018-06-04T04:25:05.815Z,94.62
2018-06-04T04:26:05.820Z,94.86
2018-06-04T04:27:05.820Z,94.23
2018-06-04T04:28:05.821Z,94.33
2018-06-04T04:29:05.819Z,95.25
2018-06-04T04:30:05.828Z,94.96
2018-06-04T04:31:05.825Z,94.62
2018-06-04T04:32:05.831Z,93.50
2018-06-04T04:33:05.829Z,93.60
2018-06-04T04:34:05.834Z,93.35
2018-06-04T04:35:05.841Z,92.86
2018-06-04T04:36:05.838Z,92.52
2018-06-04T04:37:05.845Z,91.75
2018-06-04T04:38:05.854Z,91.21
2018-06-04T04:39:05.848Z,91.60
2018-06-04T04:40:05.855Z,91.60
2018-06-04T04:41:05.854Z,91.35
2018-06-04T04:42:05.858Z,91.06
2018-06-04T04:43:05.860Z,91.06
2018-06-04T04:44:05.864Z,89.36
2018-06-04T04:45:05.871Z,89.26
2018-06-04T04:46:05.868Z,89.17
2018-06-04T04:47:05.873Z,89.17
2018-06-04T04:48:05.878Z,89.17
2018-06-04T04:49:05.883Z,89.21
2018-06-04T04:50:05.881Z,89.11
2018-06-04T04:51:05.886Z,88.86
2018-06-04T04:52:05.889Z,88.09
2018-06-04T04:53:05.891Z,87.60
2018-06-04T04:54:05.893Z,87.64
2018-06-04T04:55:05.896Z,87.35
2018-06-04T04:56:05.904Z,86.22
2018-06-04T04:57:05.900Z,85.74
2018-06-04T04:58:05.906Z,84.71
2018-06-04T04:59:05.905Z,85.88
2018-06-04T05:00:05.909Z,85.78
2018-06-04T05:01:05.916Z,84.22
2018-06-04T05:02:05.919Z,84.61
2018-06-04T05:03:05.926Z,84.46
2018-06-04T05:04:05.928Z,84.27
2018-06-04T05:05:05.933Z,83.29
2018-06-04T05:06:05.937Z,82.51
2018-06-04T05:07:05.940Z,82.35
2018-06-04T05:08:05.944Z,82.55
2018-06-04T05:09:05.953Z,81.32
2018-06-04T05:10:05.954Z,80.88
2018-06-04T05:11:05.955Z,79.47
2018-06-04T05:12:05.960Z,80.35
2018-06-04T05:13:05.965Z,80.19
2018-06-04T05:14:05.973Z,80.19
2018-06-04T05:15:05.972Z,79.61
2018-06-04T05:16:05.978Z,79.45
2018-06-04T05:17:05.985Z,79.41
2018-06-04T05:18:05.988Z,78.92
2018-06-04T05:19:05.994Z,78.92
2018-06-04T05:20:06.015Z,79.16
2018-06-04T05:21:06.003Z,78.47
2018-06-04T05:22:06.004Z,78.03
2018-06-04T05:23:06.011Z,77.83
2018-06-04T05:24:06.018Z,77.64
2018-06-04T05:25:06.023Z,77.89
2018-06-04T05:26:06.030Z,77.83
2018-06-04T05:27:06.028Z,76.79
2018-06-04T05:28:06.039Z,75.52
2018-06-04T05:29:06.035Z,75.23
2018-06-04T05:30:06.042Z,74.80
2018-06-04T05:31:06.046Z,75.78
2018-06-04T05:32:06.052Z,76.23
2018-06-04T05:33:06.062Z,77.26
2018-06-04T05:34:06.069Z,77.85
2018-06-04T05:35:06.068Z,77.85
2018-06-04T05:36:06.075Z,77.89
2018-06-04T05:37:06.086Z,76.62
2018-06-04T05:38:06.085Z,74.57
2018-06-04T05:39:06.085Z,75.90
2018-06-04T05:40:06.095Z,76.06
2018-06-04T05:41:06.105Z,77.42
2018-06-04T05:42:06.105Z,77.39
2018-06-04T05:43:06.106Z,76.97
2018-06-04T05:44:06.114Z,75.74
2018-06-04T05:45:06.120Z,74.90
2018-06-04T05:46:06.125Z,74.22
2018-06-04T05:47:06.131Z,73.50
2018-06-04T05:48:06.146Z,73.70
2018-06-04T05:49:06.142Z,72.37
2018-06-04T05:50:06.144Z,71.33
2018-06-04T05:51:06.149Z,69.89
2018-06-04T05:52:06.155Z,68.59
2018-06-04T05:53:06.161Z,69.50
2018-06-04T05:54:06.168Z,69.04
2018-06-04T05:55:06.173Z,69.14
2018-06-04T05:56:06.179Z,70.12
2018-06-04T05:57:06.197Z,69.40
2018-06-04T05:58:06.200Z,70.28
2018-06-04T05:59:06.197Z,69.73
2018-06-04T06:00:06.241Z,69.89
2018-06-04T06:01:06.209Z,70.25
2018-06-04T06:02:06.212Z,69.70
2018-06-04T06:03:06.219Z,69.11
2018-06-04T06:04:06.224Z,68.07
2018-06-04T06:05:06.236Z,66.60
2018-06-04T06:06:06.237Z,67.71
2018-06-04T06:07:06.243Z,69.76
2018-06-04T06:08:06.248Z,70.61
2018-06-04T06:09:06.263Z,70.44
2018-06-04T06:10:06.262Z,71.03
2018-06-04T06:11:06.265Z,71.19
2018-06-04T06:12:06.273Z,71.29
2018-06-04T06:13:06.278Z,70.80
2018-06-04T06:14:06.313Z,71.68
2018-06-04T06:15:06.293Z,71.16
2018-06-04T06:16:06.302Z,69.60
2018-06-04T06:17:06.307Z,70.87
2018-06-04T06:18:06.322Z,70.12
2018-06-04T06:19:06.317Z,68.88
2018-06-04T06:20:06.323Z,67.29
2018-06-04T06:21:06.331Z,66.01
2018-06-04T06:22:06.335Z,66.20
2018-06-04T06:23:06.341Z,66.08
2018-06-04T06:24:06.346Z,66.30
2018-06-04T06:25:06.360Z,67.84
2018-06-04T06:26:06.359Z,66.89
2018-06-04T06:27:06.367Z,65.81
2018-06-04T06:28:06.372Z,67.32
2018-06-04T06:29:06.378Z,66.83
2018-06-04T06:30:06.388Z,65.78
2018-06-04T06:31:06.391Z,66.14
2018-06-04T06:32:06.396Z,66.63
2018-06-04T06:33:06.404Z,66.83
2018-06-04T06:34:06.410Z,66.01
2018-06-04T06:35:06.417Z,64.51
2018-06-04T06:36:06.422Z,65.13
2018-06-04T06:37:06.430Z,65.23
2018-06-04T06:38:06.439Z,65.16
2018-06-04T06:39:06.445Z,65.03
2018-06-04T06:40:06.451Z,64.87
2018-06-04T06:41:06.457Z,63.82
2018-06-04T06:42:06.466Z,62.71
2018-06-04T06:43:06.498Z,63.82
2018-06-04T06:44:06.479Z,63.26
2018-06-04T06:45:06.486Z,63.23
2018-06-04T06:46:06.493Z,63.23
2018-06-04T06:47:06.499Z,62.32
2018-06-04T06:48:06.507Z,63.21
2018-06-04T06:49:06.514Z,63.53
2018-06-04T06:50:06.556Z,64.09
2018-06-04T06:51:06.528Z,64.73
2018-06-04T06:52:06.538Z,63.46
2018-06-04T06:53:06.543Z,63.79
2018-06-04T06:54:06.551Z,60.49
2018-06-04T06:55:06.556Z,60.35
2018-06-04T06:56:06.569Z,59.39
2018-06-04T06:57:06.578Z,59.82
2018-06-04T06:58:06.589Z,58.47
2018-06-04T06:59:06.589Z,58.44
2018-06-04T07:00:06.600Z,58.84
2018-06-04T07:01:06.602Z,58.34
2018-06-04T07:02:06.615Z,58.57
2018-06-04T07:03:06.618Z,58.08
2018-06-04T07:04:06.625Z,57.81
2018-06-04T07:05:06.639Z,57.49
2018-06-04T07:06:06.647Z,58.26
2018-06-04T07:07:06.652Z,58.97
2018-06-04T07:08:06.661Z,58.54
2018-06-04T07:09:06.671Z,57.32
2018-06-04T07:10:06.678Z,57.05
2018-06-04T07:11:06.688Z,55.97
2018-06-04T07:12:06.693Z,55.60
2018-06-04T07:13:06.703Z,55.11
2018-06-04T07:14:06.710Z,54.89
2018-06-04T07:15:06.716Z,55.01
2018-06-04T07:16:06.730Z,53.31
2018-06-04T07:17:06.740Z,55.16
2018-06-04T07:18:06.749Z,56.11
2018-06-04T07:19:06.757Z,56.74
2018-06-04T07:20:06.770Z,56.97
2018-06-04T07:21:06.778Z,55.89
2018-06-04T07:22:06.785Z,56.48
2018-06-04T07:23:06.793Z,57.07
2018-06-04T07:24:06.806Z,56.53
2018-06-04T07:25:06.813Z,55.77
2018-06-04T07:26:06.822Z,53.61
2018-06-04T07:27:06.831Z,55.49
2018-06-04T07:28:06.842Z,55.40
2018-06-04T07:29:06.852Z,55.69
2018-06-04T07:30:06.869Z,55.05
2018-06-04T07:31:06.876Z,57.67
2018-06-04T07:32:06.879Z,57.74
2018-06-04T07:33:06.888Z,58.47
2018-06-04T07:34:06.893Z,60.14
2018-06-04T07:35:06.910Z,58.93
2018-06-04T07:36:06.918Z,60.83
2018-06-04T07:37:06.925Z,59.69
2018-06-04T07:38:06.934Z,59.03
2018-06-04T07:39:06.943Z,58.90
2018-06-04T07:40:06.949Z,58.97
2018-06-04T07:41:06.995Z,59.49
2018-06-04T07:42:06.971Z,59.09
2018-06-04T07:43:06.980Z,60.16
2018-06-04T07:44:06.989Z,61.33
2018-06-04T07:45:07.000Z,62.11
2018-06-04T07:46:07.009Z,62.85
2018-06-04T07:47:07.016Z,62.40
2018-06-04T07:48:07.023Z,62.33
2018-06-04T07:49:07.036Z,61.12
2018-06-04T07:50:07.048Z,61.12
2018-06-04T07:51:07.051Z,61.32
2018-06-04T07:52:07.059Z,61.94
2018-06-04T07:53:07.069Z,61.71
2018-06-04T07:54:07.078Z,60.27
2018-06-04T07:55:07.086Z,59.55
2018-06-04T07:56:07.146Z,59.95
2018-06-04T07:57:07.106Z,61.32
2018-06-04T07:58:07.113Z,59.45
2018-06-04T07:59:07.122Z,58.11
2018-06-04T08:00:07.132Z,59.55
2018-06-04T08:01:07.141Z,57.98
2018-06-04T08:02:07.152Z,59.19
2018-06-04T08:03:07.159Z,60.57
2018-06-04T08:04:07.174Z,62.23
2018-06-04T08:05:07.181Z,61.58
2018-06-04T08:06:07.198Z,61.94
2018-06-04T08:07:07.198Z,61.38
2018-06-04T08:08:07.206Z,60.41
2018-06-04T08:09:07.215Z,60.50
2018-06-04T08:10:07.293Z,60.53
2018-06-04T08:11:07.242Z,61.41
2018-06-04T08:12:07.249Z,60.96
2018-06-04T08:13:07.255Z,59.88
2018-06-04T08:14:07.261Z,61.22
2018-06-04T08:15:07.269Z,60.42
2018-06-04T08:16:07.279Z,59.32
2018-06-04T08:17:07.290Z,61.16
2018-06-04T08:18:07.299Z,62.53
2018-06-04T08:19:07.308Z,66.27
2018-06-04T08:20:07.317Z,65.33
2018-06-04T08:21:07.328Z,62.70
2018-06-04T08:22:07.340Z,61.94
2018-06-04T08:23:07.342Z,62.66
2018-06-04T08:24:07.360Z,61.19
2018-06-04T08:25:07.373Z,60.66
2018-06-04T08:26:07.374Z,60.31
2018-06-04T08:27:07.406Z,60.47
2018-06-04T08:28:07.394Z,60.50
2018-06-04T08:29:07.400Z,61.74
2018-06-04T08:30:07.410Z,62.36
2018-06-04T08:31:07.418Z,60.45
2018-06-04T08:32:07.430Z,63.28
2018-06-04T08:33:07.439Z,66.60
2018-06-04T08:34:07.447Z,67.54
2018-06-04T08:35:07.458Z,64.42
2018-06-04T08:36:07.465Z,63.80
2018-06-04T08:37:07.472Z,62.03
2018-06-04T08:38:07.501Z,61.08
2018-06-04T08:39:07.494Z,59.90
2018-06-04T08:40:07.507Z,57.25
2018-06-04T08:41:07.516Z,57.71
2018-06-04T08:42:07.525Z,58.47
2018-06-04T08:43:07.534Z,58.33
2018-06-04T08:44:07.549Z,55.91
2018-06-04T08:45:07.559Z,56.10
2018-06-04T08:46:07.566Z,56.52
2018-06-04T08:47:07.576Z,56.13
2018-06-04T08:48:07.593Z,53.36
2018-06-04T08:49:07.604Z,54.75
2018-06-04T08:50:07.611Z,54.19
2018-06-04T08:51:07.623Z,57.28
2018-06-04T08:52:07.632Z,57.35
2018-06-04T08:53:07.652Z,56.34
2018-06-04T08:54:07.655Z,56.67
2018-06-04T08:55:07.664Z,55.74
2018-06-04T08:56:07.675Z,56.61
2018-06-04T08:57:07.685Z,56.93
2018-06-04T08:58:07.704Z,55.19
2018-06-04T08:59:07.715Z,55.19
2018-06-04T09:00:07.725Z,54.70
2018-06-04T09:01:07.735Z,55.19
2018-06-04T09:02:07.748Z,55.29
2018-06-04T09:03:07.749Z,55.92
2018-06-04T09:04:07.762Z,54.85
2018-06-04T09:05:07.771Z,56.54
2018-06-04T09:06:07.784Z,56.83
2018-06-04T09:07:07.791Z,57.53
2018-06-04T09:08:07.800Z,59.56
2018-06-04T09:09:07.806Z,62.76
2018-06-04T09:10:07.823Z,64.45
2018-06-04T09:11:07.829Z,67.63
2018-06-04T09:12:07.837Z,69.74
2018-06-04T09:13:07.849Z,71.13
2018-06-04T09:14:07.855Z,70.75
2018-06-04T09:15:07.862Z,70.84
2018-06-04T09:16:07.873Z,72.43
2018-06-04T09:17:07.879Z,72.39
2018-06-04T09:18:07.887Z,72.69
2018-06-04T09:19:07.895Z,73.40
2018-06-04T09:20:07.901Z,72.69
2018-06-04T09:21:07.908Z,72.49
2018-06-04T09:22:08.001Z,72.59
2018-06-04T09:23:07.923Z,73.95
2018-06-04T09:24:07.932Z,74.28
2018-06-04T09:25:07.946Z,71.66
2018-06-04T09:26:07.952Z,71.75
2018-06-04T09:27:07.961Z,74.71
2018-06-04T09:28:07.962Z,72.63
2018-06-04T09:29:07.973Z,72.56
2018-06-04T09:30:07.979Z,73.21
2018-06-04T09:31:07.986Z,72.92
2018-06-04T09:32:07.992Z,72.49
2018-06-04T09:33:07.998Z,72.49
2018-06-04T09:34:08.004Z,73.27
2018-06-04T09:35:08.012Z,73.95
2018-06-04T09:36:08.018Z,72.82
2018-06-04T09:37:08.025Z,72.53
2018-06-04T09:38:08.032Z,72.72
2018-06-04T09:39:08.038Z,73.21
2018-06-04T09:40:08.099Z,74.61
2018-06-04T09:41:08.052Z,75.03
2018-06-04T09:42:08.058Z,71.78
2018-06-04T09:43:08.058Z,72.49
2018-06-04T09:44:08.064Z,73.08
2018-06-04T09:45:08.077Z,73.85
2018-06-04T09:46:08.081Z,74.30
2018-06-04T09:47:08.084Z,74.60
2018-06-04T09:48:08.091Z,75.53
2018-06-04T09:49:08.096Z,75.47
2018-06-04T09:50:08.103Z,76.31
2018-06-04T09:51:08.107Z,76.64
2018-06-04T09:52:08.116Z,75.70
2018-06-04T09:53:08.128Z,76.28
2018-06-04T09:54:08.186Z,73.95
2018-06-04T09:55:08.135Z,73.21
2018-06-04T09:56:08.140Z,73.93
2018-06-04T09:57:08.146Z,71.75
2018-06-04T09:58:08.153Z,71.78
2018-06-04T09:59:08.159Z,72.70
2018-06-04T10:00:08.163Z,71.30
2018-06-04T10:01:08.173Z,70.87
2018-06-04T10:02:08.178Z,70.72
2018-06-04T10:03:08.181Z,71.78
2018-06-04T10:04:08.191Z,74.90
2018-06-04T10:05:08.194Z,74.32
2018-06-04T10:06:08.203Z,74.02
2018-06-04T10:07:08.204Z,72.96
2018-06-04T10:08:08.212Z,71.40
2018-06-04T10:09:08.219Z,72.56
2018-06-04T10:10:08.225Z,73.24
2018-06-04T10:11:08.230Z,72.76
2018-06-04T10:12:08.237Z,70.00
2018-06-04T10:13:08.243Z,71.50
2018-06-04T10:14:08.251Z,70.91
2018-06-04T10:15:08.253Z,71.11
2018-06-04T10:16:08.263Z,70.29
2018-06-04T10:17:08.267Z,71.17
2018-06-04T10:18:08.275Z,71.17
2018-06-04T10:19:08.280Z,71.26
2018-06-04T10:20:08.289Z,69.87
2018-06-04T10:21:08.289Z,69.67
2018-06-04T10:22:08.299Z,69.87
2018-06-04T10:23:08.304Z,69.29
2018-06-04T10:24:08.307Z,69.81
2018-06-04T10:25:08.314Z,70.97
2018-06-04T10:26:08.321Z,71.36
2018-06-04T10:27:08.331Z,70.87
2018-06-04T10:28:08.334Z,71.17
2018-06-04T10:29:08.340Z,71.56
2018-06-04T10:30:08.353Z,73.21
2018-06-04T10:31:08.353Z,73.24
2018-06-04T10:32:08.359Z,73.83
2018-06-04T10:33:08.371Z,74.71
2018-06-04T10:34:08.373Z,72.70
2018-06-04T10:35:08.379Z,71.72
2018-06-04T10:36:08.385Z,70.42
2018-06-04T10:37:08.391Z,69.16
2018-06-04T10:38:08.398Z,70.58
2018-06-04T10:39:08.404Z,70.29
2018-06-04T10:40:08.413Z,70.58
2018-06-04T10:41:08.417Z,71.52
2018-06-04T10:42:08.423Z,72.85
2018-06-04T10:43:08.423Z,72.27
2018-06-04T10:44:08.439Z,72.61
2018-06-04T10:45:08.443Z,73.49
2018-06-04T10:46:08.451Z,74.07
2018-06-04T10:47:08.454Z,72.65
2018-06-04T10:48:08.460Z,72.69
2018-06-04T10:49:08.466Z,72.98
2018-06-04T10:50:08.474Z,72.36
2018-06-04T10:51:08.520Z,72.45
2018-06-04T10:52:08.483Z,72.88
2018-06-04T10:53:08.531Z,71.52
2018-06-04T10:54:08.496Z,73.56
2018-06-04T10:55:08.505Z,71.39
2018-06-04T10:56:08.507Z,72.55
2018-06-04T10:57:08.512Z,71.81
2018-06-04T10:58:08.519Z,69.96
2018-06-04T10:59:08.525Z,70.75
2018-06-04T11:00:08.531Z,72.36
2018-06-04T11:01:08.539Z,71.39
2018-06-04T11:02:08.543Z,71.84
2018-06-04T11:03:08.547Z,73.39
2018-06-04T11:04:08.620Z,73.10
2018-06-04T11:05:08.560Z,74.17
2018-06-04T11:06:08.567Z,76.01
2018-06-04T11:07:08.572Z,75.34
2018-06-04T11:08:08.584Z,75.08
2018-06-04T11:09:08.582Z,74.79
2018-06-04T11:10:08.589Z,75.47
2018-06-04T11:11:08.596Z,74.79
2018-06-04T11:12:08.602Z,74.85
2018-06-04T11:13:08.649Z,75.72
2018-06-04T11:14:08.614Z,75.72
2018-06-04T11:15:08.623Z,75.43
2018-06-04T11:16:08.623Z,76.31
2018-06-04T11:17:08.629Z,75.34
2018-06-04T11:18:08.635Z,75.72
2018-06-04T11:19:08.642Z,76.31
2018-06-04T11:20:08.648Z,76.60
2018-06-04T11:21:08.656Z,75.67
2018-06-04T11:22:08.659Z,75.95
2018-06-04T11:23:08.664Z,76.57
2018-06-04T11:24:08.667Z,76.28
2018-06-04T11:25:08.678Z,73.18
2018-06-04T11:26:08.682Z,74.24
2018-06-04T11:27:08.686Z,74.54
2018-06-04T11:28:08.694Z,74.57
2018-06-04T11:29:08.698Z,73.95
2018-06-04T11:30:08.708Z,76.57
2018-06-04T11:31:08.711Z,72.55
2018-06-04T11:32:08.716Z,72.69
2018-06-04T11:33:08.724Z,72.98
2018-06-04T11:34:08.729Z,73.18
2018-06-04T11:35:08.756Z,74.82
2018-06-04T11:36:08.743Z,74.82
2018-06-04T11:37:08.747Z,73.95
2018-06-04T11:38:08.754Z,73.79
2018-06-04T11:39:08.760Z,74.28
2018-06-04T11:40:08.835Z,72.63
2018-06-04T11:41:08.772Z,71.56
2018-06-04T11:42:08.779Z,71.46
2018-06-04T11:43:08.780Z,71.66
2018-06-04T11:44:08.792Z,71.66
2018-06-04T11:45:08.798Z,71.46
2018-06-04T11:46:08.803Z,74.48
2018-06-04T11:47:08.810Z,73.30
2018-06-04T11:48:08.814Z,72.63
2018-06-04T11:49:08.821Z,72.76
2018-06-04T11:50:08.834Z,72.08
2018-06-04T11:51:08.897Z,71.69
2018-06-04T11:52:08.844Z,73.79
2018-06-04T11:53:08.846Z,73.02
2018-06-04T11:54:08.917Z,71.88
2018-06-04T11:55:08.863Z,72.47
2018-06-04T11:56:08.864Z,72.37
2018-06-04T11:57:08.870Z,71.69
2018-06-04T11:58:08.877Z,71.50
2018-06-04T11:59:08.885Z,70.78
2018-06-04T12:00:08.889Z,70.78
2018-06-04T12:01:08.895Z,71.33
2018-06-04T12:02:08.900Z,72.14
2018-06-04T12:03:08.961Z,71.94
2018-06-04T12:04:08.912Z,72.63
2018-06-04T12:05:08.928Z,73.02
2018-06-04T12:06:08.926Z,73.11
2018-06-04T12:07:08.941Z,72.72
2018-06-04T12:08:08.939Z,73.05
2018-06-04T12:09:08.944Z,71.30
2018-06-04T12:10:08.955Z,70.52
2018-06-04T12:11:08.960Z,69.74
2018-06-04T12:12:08.964Z,71.36
2018-06-04T12:13:08.972Z,72.88
2018-06-04T12:14:08.976Z,73.18
2018-06-04T12:15:08.981Z,74.24
2018-06-04T12:16:08.990Z,75.08
2018-06-04T12:17:08.995Z,75.12
2018-06-04T12:18:09.000Z,75.47
2018-06-04T12:19:09.008Z,75.85
2018-06-04T12:20:09.018Z,75.62
2018-06-04T12:21:09.020Z,75.14
2018-06-04T12:22:09.025Z,75.72
2018-06-04T12:23:09.032Z,76.21
2018-06-04T12:24:09.038Z,76.50
2018-06-04T12:25:09.043Z,76.21
2018-06-04T12:26:09.061Z,76.69
2018-06-04T12:27:09.098Z,75.85
2018-06-04T12:28:09.073Z,75.76
2018-06-04T12:29:09.069Z,75.08
2018-06-04T12:30:09.070Z,74.30
2018-06-04T12:31:09.076Z,74.40
2018-06-04T12:32:09.084Z,75.89
2018-06-04T12:33:09.092Z,76.28
2018-06-04T12:34:09.093Z,75.12
2018-06-04T12:35:09.098Z,74.54
2018-06-04T12:36:09.103Z,73.95
2018-06-04T12:37:09.110Z,74.60
2018-06-04T12:38:09.115Z,74.79
2018-06-04T12:39:09.121Z,75.43
2018-06-04T12:40:09.123Z,77.18
2018-06-04T12:41:09.129Z,77.41
2018-06-04T12:42:09.137Z,76.21
2018-06-04T12:43:09.141Z,76.31
2018-06-04T12:44:09.149Z,74.95
2018-06-04T12:45:09.156Z,75.72
2018-06-04T12:46:09.158Z,76.40
2018-06-04T12:47:09.163Z,75.47
2018-06-04T12:48:09.216Z,74.79
2018-06-04T12:49:09.172Z,75.18
2018-06-04T12:50:09.177Z,75.99
2018-06-04T12:51:09.182Z,75.02
2018-06-04T12:52:09.190Z,73.75